Trajano — CUIC5 — position and weather

sailwx.info

Track history (hours):
 
Tides and Currents Weather Stations Pressure Air Temp Water Temp Dewpoint Dewpoint Depression Visibility Wind Speed Wind Dir Waves Ship Positions

Trajano

Last reported at 2018-Jan-22 02:27 UTC. Time now 2018-Jan-23 14:09 UTC.
Position N 37°59' W 008°54'.

Length 14 m.

Type: Fishing. MMSI: 263420690.

Date/timePositionNaut miles runAvg speedWind from/ knotsBaromVisibWave heightAir tempDewpointWater temp
2018-Jan-22 02:27N 37°59' W 008°54'3 7.5
2018-Jan-22 02:00N 37°56' W 008°54'16 0.9
2018-Jan-21 09:21N 38°11' W 008°51'1 3.3
2018-Jan-21 09:00N 38°10' W 008°51'3 6.2
2018-Jan-21 08:30N 38°13' W 008°51'1 1.1
2018-Jan-21 08:00N 38°13' W 008°51'1 1.7
2018-Jan-21 07:30N 38°12' W 008°51'  
2018-Jan-12 08:58N 38°09' W 008°50'1 1.1
2018-Jan-12 08:30N 38°10' W 008°50'1 1.4
2018-Jan-12 08:00N 38°10' W 008°50'0 0.8
2018-Jan-12 07:30N 38°11' W 008°50'0 0.1
2018-Jan-12 07:00N 38°11' W 008°50'0 0.1
2018-Jan-12 06:29N 38°11' W 008°50'6 2.4
2018-Jan-12 03:48N 38°06' W 008°56'1 2.3
2018-Jan-12 03:30N 38°06' W 008°56'0 0.2
2018-Jan-12 03:01N 38°06' W 008°56'2 4.5
2018-Jan-12 02:30N 38°03' W 008°56'  
Track history (hours):
 
Tides and Currents Weather Stations Pressure Air Temp Water Temp Dewpoint Dewpoint Depression Visibility Wind Speed Wind Dir Waves Ship Positions

Trajano

Last reported at 2018-Jan-22 02:27 UTC. Time now 2018-Jan-23 14:09 UTC.
Position N 37°59' W 008°54'.

Length 14 m.

Type: Fishing. MMSI: 263420690.

Date/timePositionNaut miles runAvg speedWind from/ knotsBaromVisibWave heightAir tempDewpointWater temp
2018-Jan-22 02:27N 37°59' W 008°54'3 7.5
2018-Jan-22 02:00N 37°56' W 008°54'16 0.9
2018-Jan-21 09:21N 38°11' W 008°51'1 3.3
2018-Jan-21 09:00N 38°10' W 008°51'3 6.2
2018-Jan-21 08:30N 38°13' W 008°51'1 1.1
2018-Jan-21 08:00N 38°13' W 008°51'1 1.7
2018-Jan-21 07:30N 38°12' W 008°51'  
2018-Jan-12 08:58N 38°09' W 008°50'1 1.1
2018-Jan-12 08:30N 38°10' W 008°50'1 1.4
2018-Jan-12 08:00N 38°10' W 008°50'0 0.8
2018-Jan-12 07:30N 38°11' W 008°50'0 0.1
2018-Jan-12 07:00N 38°11' W 008°50'0 0.1
2018-Jan-12 06:29N 38°11' W 008°50'6 2.4
2018-Jan-12 03:48N 38°06' W 008°56'1 2.3
2018-Jan-12 03:30N 38°06' W 008°56'0 0.2
2018-Jan-12 03:01N 38°06' W 008°56'2 4.5
2018-Jan-12 02:30N 38°03' W 008°56'  

Dump ship's entire track history